Time;durP1;ratioP1;P1;durP2;ratioP2;P2;SDS_P1;SDS_P2;PMS_P1;PMS_P2;Temp;Humidity;BMP_temperature;BMP_pressure;BME280_temperature;BME280_humidity;BME280_pressure;Samples;Min_cycle;Max_cycle;Signal;HPM_P1;HPM_P2
2022/02/25 00:00:45;;;;;;;93.35;57.65;;;10.00;78.40;;;;;;5054012;28;20047;-67
2022/02/25 00:03:50;;;;;;;94.68;60.33;;;10.00;78.50;;;;;;5053728;28;20112;-68
2022/02/25 00:06:54;;;;;;;99.28;58.90;;;9.90;78.80;;;;;;5042399;28;20044;-68
2022/02/25 00:09:58;;;;;;;99.97;60.63;;;9.90;78.80;;;;;;5053190;28;20044;-69
2022/02/25 00:13:03;;;;;;;97.60;60.90;;;9.70;79.00;;;;;;5053555;28;20539;-69
2022/02/25 00:16:07;;;;;;;104.72;61.78;;;9.80;79.20;;;;;;5053631;28;20448;-69
2022/02/25 00:19:10;;;;;;;105.70;64.10;;;9.80;79.60;;;;;;5052755;28;20048;-68
2022/02/25 00:22:16;;;;;;;106.80;66.10;;;9.80;79.20;;;;;;5053807;28;20522;-68
2022/02/25 00:25:20;;;;;;;104.28;64.80;;;9.80;79.20;;;;;;5053801;28;20047;-68
2022/02/25 00:28:24;;;;;;;102.70;65.15;;;9.70;79.30;;;;;;5054178;28;20039;-68
2022/02/25 00:31:28;;;;;;;102.90;63.53;;;9.70;79.20;;;;;;5053533;28;20047;-68
2022/02/25 00:34:33;;;;;;;98.63;63.90;;;9.70;79.60;;;;;;5053791;28;20060;-68
2022/02/25 00:37:38;;;;;;;96.70;62.53;;;9.80;79.50;;;;;;5052288;28;20044;-68
2022/02/25 00:40:44;;;;;;;97.93;61.40;;;9.80;79.30;;;;;;5053049;28;20040;-68
2022/02/25 00:43:49;;;;;;;109.25;61.83;;;9.70;79.20;;;;;;5053852;28;20032;-68
2022/02/25 00:46:53;;;;;;;95.32;58.30;;;9.60;79.40;;;;;;5053315;28;20044;-69
2022/02/25 00:49:57;;;;;;;102.15;59.75;;;9.60;79.20;;;;;;5052901;28;20048;-69
2022/02/25 00:53:02;;;;;;;88.68;57.65;;;9.50;78.90;;;;;;5053897;28;20048;-69
2022/02/25 00:56:07;;;;;;;84.63;54.40;;;9.30;79.40;;;;;;5053555;28;20152;-69
2022/02/25 00:59:11;;;;;;;88.57;52.47;;;9.20;80.70;;;;;;5053608;28;20036;-69
2022/02/25 01:02:15;;;;;;;72.65;45.97;;;9.00;80.40;;;;;;5051740;28;20044;-69
2022/02/25 01:05:23;;;;;;;76.13;46.38;;;9.00;81.00;;;;;;5052267;28;20048;-69
2022/02/25 01:08:28;;;;;;;62.45;42.03;;;8.80;80.90;;;;;;5051886;28;20047;-69
2022/02/25 01:11:34;;;;;;;68.93;42.67;;;8.90;81.40;;;;;;5053083;28;20388;-67
2022/02/25 01:14:38;;;;;;;62.85;40.13;;;9.00;81.40;;;;;;5052812;28;20115;-68
2022/02/25 01:17:44;;;;;;;69.03;42.42;;;8.90;80.90;;;;;;5052243;28;20063;-68
2022/02/25 01:20:48;;;;;;;66.15;42.00;;;9.00;81.00;;;;;;5051878;28;20048;-68
2022/02/25 01:23:53;;;;;;;71.70;43.00;;;9.10;80.50;;;;;;5051497;28;20074;-68
2022/02/25 01:26:58;;;;;;;66.75;42.00;;;9.30;80.20;;;;;;5051250;28;20051;-68
2022/02/25 01:30:05;;;;;;;73.30;42.38;;;9.30;79.90;;;;;;5052921;28;20048;-68
2022/02/25 01:33:10;;;;;;;62.85;41.25;;;9.20;79.80;;;;;;5052375;28;20048;-68
2022/02/25 01:36:15;;;;;;;61.78;40.40;;;9.10;80.10;;;;;;5051322;28;20610;-68
2022/02/25 01:39:19;;;;;;;59.65;36.33;;;9.10;80.30;;;;;;5052385;28;20052;-68
2022/02/25 01:42:23;;;;;;;53.42;35.95;;;9.20;79.60;;;;;;5052602;28;20044;-68
2022/02/25 01:45:32;;;;;;;52.58;34.90;;;9.20;79.70;;;;;;5040211;28;20052;-68
2022/02/25 01:48:36;;;;;;;55.90;34.25;;;9.30;79.20;;;;;;5051409;28;20047;-68
2022/02/25 01:51:41;;;;;;;59.55;36.20;;;9.40;78.90;;;;;;5051821;28;20059;-68
2022/02/25 01:54:48;;;;;;;57.05;33.83;;;9.40;78.40;;;;;;5052249;28;20079;-68
2022/02/25 01:57:52;;;;;;;70.13;37.63;;;9.30;79.20;;;;;;5027768;28;20044;-68
2022/02/25 02:00:59;;;;;;;55.70;32.13;;;9.30;79.10;;;;;;5051229;28;20052;-68
2022/02/25 02:04:04;;;;;;;50.35;31.17;;;9.30;78.40;;;;;;5051641;28;20052;-69
2022/02/25 02:07:13;;;;;;;48.63;31.05;;;9.20;78.70;;;;;;5051025;28;20111;-69
2022/02/25 02:10:17;;;;;;;51.70;29.05;;;9.10;78.90;;;;;;5051300;28;20536;-68
2022/02/25 02:13:22;;;;;;;52.78;31.08;;;9.00;79.40;;;;;;5051696;28;20044;-69
2022/02/25 02:16:26;;;;;;;48.50;28.85;;;8.80;79.30;;;;;;5051945;28;20535;-69
2022/02/25 02:19:30;;;;;;;48.53;29.85;;;8.50;80.90;;;;;;5040044;28;20048;-68
2022/02/25 02:22:34;;;;;;;48.55;30.27;;;8.50;81.10;;;;;;5051105;28;20400;-68
2022/02/25 02:25:38;;;;;;;45.30;28.80;;;8.50;81.00;;;;;;5052117;28;20047;-69
2022/02/25 02:28:42;;;;;;;44.65;25.20;;;8.30;81.00;;;;;;5051582;28;20047;-68
2022/02/25 02:31:48;;;;;;;36.03;23.40;;;8.20;81.90;;;;;;5050525;28;20528;-67
2022/02/25 02:34:53;;;;;;;41.22;25.98;;;8.30;81.80;;;;;;5051466;28;20136;-67
2022/02/25 02:37:57;;;;;;;44.10;27.25;;;8.30;81.10;;;;;;5051788;28;20040;-67
2022/02/25 02:41:01;;;;;;;41.50;25.77;;;8.10;82.20;;;;;;5052365;28;20447;-68
2022/02/25 02:44:07;;;;;;;44.20;25.40;;;8.20;82.60;;;;;;5051852;28;20056;-67
2022/02/25 02:47:10;;;;;;;39.00;23.48;;;8.30;81.80;;;;;;5052049;28;20040;-68
2022/02/25 02:50:14;;;;;;;33.92;22.27;;;8.10;82.80;;;;;;5051098;28;20392;-67
2022/02/25 02:53:19;;;;;;;35.95;23.30;;;8.00;82.90;;;;;;5051095;28;20056;-67
2022/02/25 02:56:23;;;;;;;42.50;24.17;;;8.10;83.60;;;;;;5051916;28;20505;-69
2022/02/25 02:59:27;;;;;;;41.15;25.08;;;8.20;82.70;;;;;;5052006;28;20048;-68
2022/02/25 03:02:33;;;;;;;45.30;25.10;;;7.90;83.00;;;;;;5054691;28;20052;-68
2022/02/25 03:05:38;;;;;;;39.15;25.17;;;7.80;84.70;;;;;;5055639;28;20055;-69
2022/02/25 03:08:42;;;;;;;42.75;25.55;;;8.00;84.60;;;;;;5055052;28;20154;-68
2022/02/25 03:11:49;;;;;;;39.60;23.58;;;8.10;84.20;;;;;;5054680;28;20040;-69
2022/02/25 03:14:53;;;;;;;43.42;24.58;;;8.10;82.50;;;;;;5054668;28;20124;-69
2022/02/25 03:17:59;;;;;;;34.42;22.60;;;8.00;83.30;;;;;;5054969;28;20047;-69
2022/02/25 03:21:03;;;;;;;34.75;20.85;;;8.10;83.20;;;;;;5054015;28;20052;-68
2022/02/25 03:24:09;;;;;;;34.15;21.80;;;8.30;82.70;;;;;;5055151;28;20151;-69
2022/02/25 03:27:13;;;;;;;32.25;20.27;;;8.30;82.30;;;;;;5054631;28;20048;-69
2022/02/25 03:30:19;;;;;;;33.47;20.85;;;8.30;82.10;;;;;;5031353;28;20047;-69
2022/02/25 03:33:24;;;;;;;36.75;21.60;;;8.00;82.40;;;;;;5053139;28;20052;-69
2022/02/25 03:36:30;;;;;;;36.22;21.75;;;8.10;83.10;;;;;;5054653;28;20087;-69
2022/02/25 03:39:35;;;;;;;33.47;19.23;;;8.20;82.10;;;;;;5054086;28;20048;-68
2022/02/25 03:42:42;;;;;;;30.73;19.48;;;8.20;81.90;;;;;;5054331;28;20048;-68
2022/02/25 03:45:46;;;;;;;34.05;19.52;;;8.20;82.30;;;;;;5054377;28;20044;-68
2022/02/25 03:48:51;;;;;;;34.00;20.58;;;8.30;82.50;;;;;;5053771;28;20048;-67
2022/02/25 03:51:55;;;;;;;34.55;20.70;;;8.40;81.40;;;;;;5054721;28;20064;-67
2022/02/25 03:55:00;;;;;;;32.67;19.25;;;8.40;81.30;;;;;;5041958;28;20064;-67
2022/02/25 03:58:04;;;;;;;30.55;19.23;;;8.30;81.50;;;;;;5053380;28;20052;-68
2022/02/25 04:01:11;;;;;;;33.28;19.30;;;8.20;82.80;;;;;;5054351;28;20511;-67
2022/02/25 04:04:18;;;;;;;28.38;18.48;;;8.10;82.70;;;;;;5054302;28;20040;-68
2022/02/25 04:07:22;;;;;;;32.08;19.00;;;8.30;82.60;;;;;;5053897;28;20055;-68
2022/02/25 04:10:27;;;;;;;26.33;17.63;;;8.30;81.20;;;;;;5054029;28;20060;-67
2022/02/25 04:13:31;;;;;;;30.48;19.67;;;8.30;82.90;;;;;;5053381;28;20048;-68
2022/02/25 04:16:35;;;;;;;35.47;19.17;;;8.10;82.70;;;;;;5053695;28;20059;-68
2022/02/25 04:19:40;;;;;;;27.33;18.30;;;7.80;84.00;;;;;;5052671;28;20040;-68
2022/02/25 04:22:46;;;;;;;26.05;16.60;;;7.90;85.50;;;;;;5053970;28;20512;-68
2022/02/25 04:25:51;;;;;;;29.52;17.25;;;8.20;84.70;;;;;;5054061;28;20036;-68
2022/02/25 04:28:56;;;;;;;27.92;16.38;;;8.30;83.00;;;;;;5053346;28;20047;-68
2022/02/25 04:32:00;;;;;;;28.00;16.50;;;8.30;83.30;;;;;;5052982;28;20380;-68
2022/02/25 04:35:04;;;;;;;32.95;16.70;;;8.30;83.30;;;;;;5053124;28;20056;-67
2022/02/25 04:38:09;;;;;;;29.42;16.52;;;8.30;83.90;;;;;;5053572;28;20044;-69
2022/02/25 04:41:15;;;;;;;25.85;16.02;;;8.30;83.70;;;;;;5052603;28;20056;-68
2022/02/25 04:44:22;;;;;;;26.45;14.05;;;8.50;83.80;;;;;;5053051;28;20061;-68
2022/02/25 04:47:26;;;;;;;24.30;15.27;;;8.60;82.50;;;;;;5053504;28;20052;-69
2022/02/25 04:50:30;;;;;;;24.88;15.48;;;8.80;82.10;;;;;;5052327;28;20044;-68
2022/02/25 04:53:34;;;;;;;28.83;14.63;;;8.60;82.30;;;;;;5053085;28;20055;-68
2022/02/25 04:56:38;;;;;;;21.50;13.93;;;8.50;83.70;;;;;;5053047;28;20060;-68
2022/02/25 04:59:43;;;;;;;24.88;13.88;;;8.70;83.10;;;;;;5052632;28;20036;-69
2022/02/25 05:02:47;;;;;;;21.23;13.60;;;8.80;82.70;;;;;;5052490;28;20507;-68
2022/02/25 05:05:52;;;;;;;23.33;13.10;;;8.70;82.60;;;;;;5052912;28;20044;-68
2022/02/25 05:08:57;;;;;;;20.83;14.07;;;8.70;82.50;;;;;;5052075;28;20051;-70
2022/02/25 05:12:02;;;;;;;22.50;13.10;;;8.60;83.40;;;;;;5051707;28;20044;-68
2022/02/25 05:21:57;;;;;;;22.27;12.27;;;8.70;82.50;;;;;;5051767;28;20388;-69
2022/02/25 05:25:05;;;;;;;23.40;12.80;;;8.60;83.00;;;;;;5029269;28;20040;-69
2022/02/25 05:28:09;;;;;;;21.77;12.95;;;8.50;83.60;;;;;;5052159;28;20424;-68
2022/02/25 05:31:14;;;;;;;23.02;12.88;;;8.30;84.50;;;;;;5052152;28;20063;-69
2022/02/25 05:34:19;;;;;;;23.92;13.18;;;8.40;84.70;;;;;;5052063;28;20047;-69
2022/02/25 05:37:23;;;;;;;23.63;14.23;;;8.30;84.80;;;;;;5052629;28;20047;-69
2022/02/25 05:40:28;;;;;;;23.42;14.23;;;8.20;85.40;;;;;;5040622;28;20051;-69
2022/02/25 05:43:33;;;;;;;21.13;13.43;;;8.20;86.20;;;;;;5052492;28;20064;-68
2022/02/25 05:46:37;;;;;;;23.20;13.60;;;8.30;85.40;;;;;;5052888;28;20040;-68
2022/02/25 05:49:41;;;;;;;25.45;13.57;;;8.20;85.40;;;;;;5052234;28;20051;-68
2022/02/25 05:52:46;;;;;;;24.17;14.73;;;8.20;86.40;;;;;;5052854;28;20484;-69
2022/02/25 05:55:51;;;;;;;29.52;14.18;;;8.30;85.70;;;;;;5052210;28;20056;-69
2022/02/25 05:58:56;;;;;;;24.92;14.60;;;8.50;85.70;;;;;;5051704;28;20048;-69
2022/02/25 06:02:02;;;;;;;23.88;14.48;;;8.50;84.60;;;;;;5050957;28;20048;-68
2022/02/25 06:05:07;;;;;;;20.30;14.55;;;8.40;85.80;;;;;;5051564;28;20052;-69
2022/02/25 06:08:11;;;;;;;27.73;14.40;;;8.20;85.70;;;;;;5050827;28;20052;-68
2022/02/25 06:11:15;;;;;;;25.83;14.68;;;8.20;87.20;;;;;;5050379;28;20068;-68
2022/02/25 06:14:19;;;;;;;31.27;14.25;;;8.30;86.70;;;;;;5051317;28;20052;-67
2022/02/25 06:17:24;;;;;;;29.40;16.55;;;8.20;86.80;;;;;;5051421;28;20056;-68
2022/02/25 06:20:29;;;;;;;27.77;15.38;;;8.20;86.70;;;;;;5051222;28;20044;-68
2022/02/25 06:23:35;;;;;;;24.73;13.02;;;8.20;86.80;;;;;;5051696;28;20512;-68
2022/02/25 06:26:39;;;;;;;30.85;15.05;;;8.20;87.30;;;;;;5051772;28;20043;-68
2022/02/25 06:29:44;;;;;;;27.17;14.15;;;8.30;87.30;;;;;;5051495;28;20044;-67
2022/02/25 06:32:48;;;;;;;27.50;14.52;;;8.50;86.70;;;;;;5051774;28;20044;-68
2022/02/25 06:35:52;;;;;;;26.52;14.52;;;8.60;86.60;;;;;;5054610;28;20064;-68
2022/02/25 06:38:57;;;;;;;28.67;14.48;;;8.90;85.80;;;;;;5054685;28;20040;-67
2022/02/25 06:42:02;;;;;;;35.95;14.38;;;8.90;86.00;;;;;;5055483;28;20418;-68
2022/02/25 06:45:06;;;;;;;29.48;15.35;;;8.80;86.20;;;;;;5055254;28;20052;-68
2022/02/25 06:48:11;;;;;;;28.40;14.88;;;8.80;85.90;;;;;;5055137;28;20052;-68
2022/02/25 06:51:15;;;;;;;33.38;14.85;;;8.80;86.30;;;;;;5055811;28;20043;-68
2022/02/25 06:54:22;;;;;;;30.58;15.77;;;8.90;86.10;;;;;;5055695;28;20044;-69
2022/02/25 06:57:26;;;;;;;29.10;15.18;;;9.10;86.30;;;;;;5055935;28;20048;-69
2022/02/25 07:00:32;;;;;;;35.67;16.15;;;9.20;86.30;;;;;;5055293;28;20491;-70
2022/02/25 07:03:36;;;;;;;27.98;15.85;;;9.30;86.20;;;;;;5053808;28;20059;-69
2022/02/25 07:06:40;;;;;;;26.85;15.70;;;9.30;85.80;;;;;;5053418;28;20044;-68
2022/02/25 07:09:44;;;;;;;26.65;15.55;;;9.40;86.60;;;;;;5053662;28;20039;-67
2022/02/25 07:12:48;;;;;;;25.30;14.93;;;9.50;86.30;;;;;;5053319;28;20598;-67
2022/02/25 07:15:53;;;;;;;25.48;15.52;;;9.50;86.90;;;;;;5053402;28;20060;-68
2022/02/25 07:18:57;;;;;;;24.42;14.55;;;9.70;86.30;;;;;;5053618;28;20531;-68
2022/02/25 07:22:01;;;;;;;29.17;14.80;;;9.80;86.10;;;;;;5053463;28;20047;-69
2022/02/25 07:25:05;;;;;;;27.55;14.85;;;9.90;86.50;;;;;;5053437;28;20048;-69
2022/02/25 07:28:09;;;;;;;20.08;12.40;;;10.20;86.00;;;;;;5053493;28;20491;-69
2022/02/25 07:31:13;;;;;;;21.80;13.23;;;10.40;84.80;;;;;;5053203;28;20052;-69
2022/02/25 07:34:17;;;;;;;22.52;12.73;;;10.50;85.50;;;;;;5053142;28;20051;-67
2022/02/25 07:37:24;;;;;;;29.95;12.95;;;10.70;85.20;;;;;;5052992;28;20066;-68
2022/02/25 07:40:29;;;;;;;23.50;11.98;;;10.90;85.20;;;;;;5053038;28;20044;-69
2022/02/25 07:43:33;;;;;;;26.60;11.05;;;11.10;84.50;;;;;;5052902;28;20048;-69
2022/02/25 07:46:37;;;;;;;22.77;11.93;;;11.50;83.70;;;;;;5052467;28;20507;-68
2022/02/25 07:49:40;;;;;;;19.42;8.77;;;11.60;83.20;;;;;;5052907;28;20056;-68
2022/02/25 07:52:45;;;;;;;15.48;8.90;;;11.60;83.20;;;;;;5052731;28;20040;-68
2022/02/25 07:55:48;;;;;;;16.70;9.15;;;11.60;83.80;;;;;;5052720;28;20056;-67
2022/02/25 07:58:52;;;;;;;19.85;8.23;;;11.60;84.60;;;;;;5052808;28;20044;-69
2022/02/25 08:01:56;;;;;;;16.60;8.18;;;11.70;84.90;;;;;;5052498;28;20052;-69
2022/02/25 08:05:02;;;;;;;34.00;8.95;;;11.80;84.90;;;;;;5052599;28;20066;-70
2022/02/25 08:08:07;;;;;;;18.30;7.88;;;12.00;84.70;;;;;;5052391;28;20040;-69
2022/02/25 08:11:12;;;;;;;16.98;8.35;;;12.20;84.00;;;;;;5052404;28;20052;-68
2022/02/25 08:14:16;;;;;;;15.02;7.90;;;12.50;83.80;;;;;;5052494;28;20052;-69
2022/02/25 08:17:22;;;;;;;14.07;7.55;;;12.70;83.90;;;;;;5051790;28;20048;-69
2022/02/25 08:20:26;;;;;;;23.40;8.13;;;13.00;82.30;;;;;;5052493;28;20044;-69
2022/02/25 08:23:30;;;;;;;12.02;6.55;;;13.10;81.50;;;;;;5052473;28;20063;-69
2022/02/25 08:26:34;;;;;;;11.80;7.03;;;13.40;81.30;;;;;;5052076;28;20179;-69
2022/02/25 08:29:39;;;;;;;928.05;98.97;;;13.70;80.10;;;;;;5052331;28;20040;-69
2022/02/25 08:32:46;;;;;;;14.23;7.25;;;13.90;80.10;;;;;;5052027;28;20044;-69
2022/02/25 08:35:50;;;;;;;14.80;5.72;;;14.30;79.20;;;;;;5051155;28;20111;-69
2022/02/25 08:38:54;;;;;;;14.77;5.30;;;14.70;78.90;;;;;;5052074;28;20484;-69
2022/02/25 08:41:58;;;;;;;8.50;3.72;;;15.00;77.30;;;;;;5052024;28;20071;-69
2022/02/25 08:45:07;;;;;;;6.15;2.63;;;15.00;76.70;;;;;;5051085;28;20041;-69
2022/02/25 08:48:11;;;;;;;4.50;2.70;;;15.00;77.60;;;;;;5051487;28;20029;-69
2022/02/25 08:51:16;;;;;;;5.18;2.60;;;15.20;78.30;;;;;;5051689;28;20048;-69
2022/02/25 08:54:20;;;;;;;7.38;3.10;;;15.60;78.20;;;;;;5050826;28;20509;-69
2022/02/25 08:57:24;;;;;;;9.57;3.97;;;15.70;77.00;;;;;;5050879;28;20057;-68
2022/02/25 09:00:29;;;;;;;7.78;3.65;;;15.70;76.30;;;;;;5051017;28;20045;-69
2022/02/25 09:03:33;;;;;;;10.57;4.10;;;15.80;76.60;;;;;;5051019;28;20045;-69
2022/02/25 09:06:40;;;;;;;11.45;4.22;;;15.90;75.80;;;;;;5051188;28;20051;-68
2022/02/25 09:09:44;;;;;;;6.90;3.35;;;16.00;76.30;;;;;;5051101;28;20389;-68
2022/02/25 09:12:49;;;;;;;5.80;2.55;;;16.20;76.80;;;;;;5051128;28;20047;-67
2022/02/25 09:15:54;;;;;;;4.15;1.70;;;16.20;76.90;;;;;;5050982;28;20058;-68
2022/02/25 09:18:58;;;;;;;5.35;2.13;;;16.30;76.90;;;;;;5050969;28;20037;-68
2022/02/25 09:22:04;;;;;;;2.53;1.88;;;16.30;76.60;;;;;;5050645;28;20401;-68
2022/02/25 09:25:09;;;;;;;2.83;1.70;;;16.50;76.70;;;;;;5050870;28;20362;-69
2022/02/25 09:28:14;;;;;;;3.83;1.75;;;16.50;76.10;;;;;;5049953;28;20388;-71
2022/02/25 09:31:19;;;;;;;5.88;2.60;;;16.40;76.50;;;;;;5050740;28;20055;-69
2022/02/25 09:34:23;;;;;;;6.45;3.05;;;16.40;75.50;;;;;;5050865;28;20053;-70
2022/02/25 09:37:27;;;;;;;6.53;2.80;;;16.50;75.70;;;;;;5049697;28;20045;-69
2022/02/25 09:40:32;;;;;;;5.93;2.50;;;16.70;75.50;;;;;;5050845;28;20511;-69
2022/02/25 09:43:38;;;;;;;7.45;2.80;;;16.90;76.00;;;;;;5050667;28;20041;-71
2022/02/25 09:46:46;;;;;;;5.85;2.85;;;16.90;76.80;;;;;;5049472;28;20063;-71
2022/02/25 09:49:51;;;;;;;10.02;3.97;;;17.10;79.20;;;;;;5049750;28;20049;-69
2022/02/25 09:52:55;;;;;;;18.10;8.13;;;17.30;77.70;;;;;;5049646;28;20051;-70
2022/02/25 09:55:59;;;;;;;12.07;3.28;;;17.50;75.90;;;;;;5050374;28;20090;-70
2022/02/25 09:59:04;;;;;;;5.35;2.40;;;17.70;74.50;;;;;;5050554;28;20388;-69
2022/02/25 10:02:08;;;;;;;7.65;2.40;;;17.90;74.60;;;;;;5050067;28;20500;-69
2022/02/25 10:05:16;;;;;;;6.72;2.55;;;18.10;72.70;;;;;;5050362;28;20045;-70
2022/02/25 10:08:23;;;;;;;4.82;2.10;;;18.20;71.90;;;;;;5051071;28;20052;-72
2022/02/25 10:11:27;;;;;;;4.90;2.05;;;18.40;71.90;;;;;;5053584;28;20041;-72
2022/02/25 10:14:39;;;;;;;4.05;2.20;;;18.30;71.60;;;;;;5053972;28;20040;-70
2022/02/25 10:17:43;;;;;;;6.32;2.08;;;18.40;70.50;;;;;;5054743;28;20052;-72
2022/02/25 10:20:48;;;;;;;4.93;2.10;;;18.50;70.20;;;;;;5054441;28;20044;-70
2022/02/25 10:23:52;;;;;;;10.55;2.33;;;18.60;68.90;;;;;;5054278;28;20044;-68
2022/02/25 10:26:56;;;;;;;17.15;3.83;;;18.60;68.70;;;;;;5053817;28;20039;-70
2022/02/25 10:30:11;;;;;;;6.40;2.78;;;18.50;69.70;;;;;;5050840;28;20404;-70
2022/02/25 10:33:30;;;;;;;9.07;2.60;;;18.10;70.30;;;;;;5052591;28;20040;-70
2022/02/25 10:36:46;;;;;;;6.55;2.80;;;17.80;70.70;;;;;;5053536;28;20499;-70
2022/02/25 10:39:51;;;;;;;22.92;3.22;;;17.90;70.40;;;;;;5054267;28;20063;-70
2022/02/25 10:42:59;;;;;;;18.25;5.93;;;18.10;70.00;;;;;;5054194;28;20047;-70
2022/02/25 10:46:11;;;;;;;5.93;2.30;;;18.40;69.90;;;;;;5054031;28;20048;-70
2022/02/25 10:49:16;;;;;;;4.57;2.50;;;18.60;69.80;;;;;;5041656;28;20041;-69
2022/02/25 10:52:23;;;;;;;5.22;2.20;;;18.60;69.30;;;;;;5054143;28;20373;-70
2022/02/25 10:55:28;;;;;;;6.55;2.28;;;18.80;67.90;;;;;;5053717;28;20124;-70
2022/02/25 10:58:40;;;;;;;6.30;2.40;;;18.90;67.50;;;;;;5053832;28;20044;-70
2022/02/25 11:01:44;;;;;;;10.60;3.03;;;18.80;66.60;;;;;;5041085;28;20048;-70
2022/02/25 11:05:12;;;;;;;6.53;2.92;;;18.70;67.50;;;;;;5053533;28;20683;-70
2022/02/25 11:08:16;;;;;;;5.82;2.55;;;18.80;67.80;;;;;;5053510;28;20045;-70
2022/02/25 11:11:21;;;;;;;17.92;3.20;;;18.80;67.40;;;;;;5053574;28;20346;-70
2022/02/25 11:14:25;;;;;;;9.00;2.78;;;18.90;67.00;;;;;;5053707;28;20043;-70
2022/02/25 11:17:30;;;;;;;6.43;2.80;;;18.90;66.60;;;;;;5053497;28;20048;-70
2022/02/25 11:20:37;;;;;;;7.13;3.60;;;18.90;67.10;;;;;;5052512;28;20077;-70
2022/02/25 11:23:43;;;;;;;5.70;3.03;;;18.90;67.60;;;;;;5053599;28;20040;-70
2022/02/25 11:26:48;;;;;;;7.60;3.03;;;18.80;67.90;;;;;;5053449;28;20406;-70
2022/02/25 11:30:09;;;;;;;5.38;3.40;;;18.80;68.00;;;;;;5053427;28;20036;-69
2022/02/25 11:33:19;;;;;;;9.07;3.60;;;18.80;68.70;;;;;;5053069;28;20041;-70
2022/02/25 11:36:40;;;;;;;7.88;3.28;;;18.70;69.40;;;;;;5053089;28;20049;-71
2022/02/25 11:39:44;;;;;;;7.75;3.88;;;18.60;69.00;;;;;;5053263;28;20041;-70
2022/02/25 11:42:48;;;;;;;51.08;44.95;;;18.30;69.20;;;;;;5053348;28;20048;-70
2022/02/25 11:45:53;;;;;;;7.32;4.72;;;18.20;70.90;;;;;;5052585;28;20056;-70
2022/02/25 11:48:59;;;;;;;9.60;3.33;;;18.20;70.60;;;;;;5051562;28;20033;-69
2022/02/25 11:52:06;;;;;;;6.28;3.58;;;18.20;70.70;;;;;;5051706;28;20044;-69
2022/02/25 11:55:22;;;;;;;7.43;3.40;;;18.20;70.90;;;;;;5051428;28;20045;-69
2022/02/25 11:58:46;;;;;;;9.95;5.30;;;18.20;71.40;;;;;;5052308;28;20052;-69
2022/02/25 12:02:08;;;;;;;6.20;3.55;;;18.10;71.00;;;;;;5052261;28;20499;-68
2022/02/25 12:05:16;;;;;;;8.70;2.90;;;18.00;71.20;;;;;;5051344;28;20507;-69
2022/02/25 12:08:22;;;;;;;6.25;3.30;;;18.00;71.90;;;;;;5051993;28;20060;-68
2022/02/25 12:11:32;;;;;;;5.63;2.60;;;18.00;72.20;;;;;;5052548;28;20048;-70
2022/02/25 12:14:57;;;;;;;5.60;2.42;;;18.10;72.10;;;;;;5052277;28;20052;-67
2022/02/25 12:18:05;;;;;;;8.63;2.50;;;18.00;72.40;;;;;;5052684;28;20049;-68
2022/02/25 12:21:10;;;;;;;9.20;2.42;;;18.00;72.60;;;;;;5052394;28;20044;-70
2022/02/25 12:24:15;;;;;;;6.05;2.53;;;17.90;73.30;;;;;;5052411;28;20507;-70
2022/02/25 12:27:29;;;;;;;12.48;3.10;;;18.00;73.40;;;;;;5052073;28;20072;-68
2022/02/25 12:30:47;;;;;;;4.35;2.20;;;18.00;72.90;;;;;;5051975;28;20072;-70
2022/02/25 12:34:03;;;;;;;11.35;2.30;;;18.00;72.50;;;;;;5051123;28;20048;-68
2022/02/25 12:37:16;;;;;;;13.05;2.90;;;18.00;72.40;;;;;;5051524;28;20059;-70
2022/02/25 12:40:23;;;;;;;7.00;2.28;;;17.90;73.00;;;;;;5051719;28;20043;-67
2022/02/25 12:43:27;;;;;;;4.53;1.80;;;17.90;73.10;;;;;;5051742;28;20064;-67
2022/02/25 12:46:39;;;;;;;3.90;1.80;;;18.00;72.90;;;;;;5051971;28;20048;-68
2022/02/25 12:49:44;;;;;;;7.03;1.88;;;17.90;72.40;;;;;;5051722;28;20029;-68
2022/02/25 12:52:48;;;;;;;7.97;2.30;;;17.80;72.80;;;;;;5051121;28;20076;-68
2022/02/25 12:55:57;;;;;;;6.50;2.08;;;17.80;72.30;;;;;;5051212;28;20072;-68
2022/02/25 12:59:07;;;;;;;12.57;2.50;;;17.80;72.80;;;;;;5050966;28;20040;-68
2022/02/25 13:02:18;;;;;;;18.27;2.80;;;17.80;72.80;;;;;;5051294;28;20408;-68
2022/02/25 13:05:25;;;;;;;11.70;2.27;;;17.70;72.90;;;;;;5051501;28;20488;-68
2022/02/25 13:08:30;;;;;;;41.67;4.05;;;17.70;73.20;;;;;;5051195;28;20529;-68
2022/02/25 13:11:35;;;;;;;8.02;2.10;;;17.60;73.20;;;;;;5051222;28;20044;-68
2022/02/25 13:14:52;;;;;;;4.03;1.70;;;17.60;73.40;;;;;;5050953;28;20054;-68
2022/02/25 13:17:58;;;;;;;6.95;2.15;;;17.60;73.40;;;;;;5050917;28;20057;-68
2022/02/25 13:21:09;;;;;;;10.52;2.45;;;17.50;73.50;;;;;;5050442;28;20037;-68
2022/02/25 13:24:15;;;;;;;4.38;1.95;;;17.50;74.10;;;;;;5051242;28;20044;-68
2022/02/25 13:27:26;;;;;;;6.28;2.03;;;17.50;73.70;;;;;;5050010;28;20036;-69
2022/02/25 13:30:41;;;;;;;5.30;1.70;;;17.50;74.30;;;;;;5049951;28;20040;-69
2022/02/25 13:33:45;;;;;;;7.13;1.88;;;17.50;74.20;;;;;;5050352;28;20040;-69
2022/02/25 13:36:49;;;;;;;8.82;3.08;;;17.40;74.80;;;;;;5050282;28;20061;-70
2022/02/25 13:39:53;;;;;;;7.28;2.67;;;17.40;75.00;;;;;;5050536;28;20370;-70
2022/02/25 13:42:58;;;;;;;14.23;2.40;;;17.30;75.00;;;;;;5050257;28;20101;-68
2022/02/25 13:46:11;;;;;;;6.70;1.88;;;17.30;75.40;;;;;;5050884;28;20044;-69
2022/02/25 13:52:38;;;;;;;7.90;2.60;;;17.20;76.50;;;;;;5050697;28;20036;-68
2022/02/25 13:55:41;;;;;;;5.45;1.90;;;17.20;76.00;;;;;;5050668;28;20374;-67
2022/02/25 13:59:23;;;;;;;10.88;2.85;;;17.20;76.50;;;;;;5050788;28;20056;-68
2022/02/25 14:02:34;;;;;;;5.60;1.92;;;17.20;76.70;;;;;;5049924;28;20055;-69
2022/02/25 14:05:40;;;;;;;5.45;1.83;;;17.10;76.30;;;;;;5050533;28;20060;-69
2022/02/25 14:08:45;;;;;;;6.35;2.20;;;17.00;76.30;;;;;;5050414;28;20060;-67
2022/02/25 14:12:19;;;;;;;12.02;2.75;;;17.00;76.30;;;;;;5050051;28;20049;-67
2022/02/25 14:15:25;;;;;;;6.75;1.92;;;16.90;76.40;;;;;;5050113;28;20052;-67
2022/02/25 14:18:29;;;;;;;5.75;1.70;;;16.80;76.60;;;;;;5050507;28;20052;-68
2022/02/25 14:21:33;;;;;;;3.75;1.70;;;16.80;77.00;;;;;;5050509;28;20414;-67
2022/02/25 14:24:46;;;;;;;6.30;1.80;;;16.70;77.00;;;;;;5050531;28;20037;-67
2022/02/25 14:28:11;;;;;;;3.75;1.60;;;16.60;77.30;;;;;;5050357;28;20045;-66
2022/02/25 14:31:25;;;;;;;6.22;1.90;;;16.60;77.30;;;;;;5049939;28;20503;-69
2022/02/25 14:34:44;;;;;;;10.43;2.05;;;16.60;77.60;;;;;;5050523;28;20044;-68
2022/02/25 14:37:48;;;;;;;5.25;2.75;;;16.60;77.40;;;;;;5049108;28;20052;-70
2022/02/25 14:40:52;;;;;;;6.90;1.70;;;16.50;78.20;;;;;;5048999;28;20393;-70
2022/02/25 14:43:56;;;;;;;4.05;1.63;;;16.50;78.00;;;;;;5050239;28;20393;-69
2022/02/25 14:47:00;;;;;;;6.43;1.80;;;16.50;78.60;;;;;;5049760;28;20040;-70
2022/02/25 14:50:05;;;;;;;7.90;1.70;;;16.40;79.10;;;;;;5050341;28;20500;-72
2022/02/25 14:53:09;;;;;;;6.53;1.70;;;16.40;78.30;;;;;;5050192;28;20060;-72
2022/02/25 14:56:13;;;;;;;6.13;1.95;;;16.40;79.30;;;;;;5051733;28;20054;-71
2022/02/25 14:59:17;;;;;;;7.32;1.60;;;16.40;78.80;;;;;;5054023;28;20048;-72
2022/02/25 15:02:21;;;;;;;9.45;1.80;;;16.40;78.20;;;;;;5053406;28;20057;-71
2022/02/25 15:05:25;;;;;;;8.63;1.60;;;16.40;77.50;;;;;;5053691;28;20040;-71
2022/02/25 15:08:29;;;;;;;6.20;2.08;;;16.40;77.30;;;;;;5053330;28;20048;-70
2022/02/25 15:11:33;;;;;;;5.53;1.88;;;16.40;77.80;;;;;;5053533;28;20384;-69
2022/02/25 15:14:37;;;;;;;3.63;1.55;;;16.40;77.70;;;;;;5053614;28;20033;-68
2022/02/25 15:17:42;;;;;;;6.60;2.05;;;16.30;78.20;;;;;;5053141;28;20060;-69
2022/02/25 15:20:47;;;;;;;11.63;2.15;;;16.30;78.40;;;;;;5053100;28;20052;-69
2022/02/25 15:23:51;;;;;;;7.97;1.73;;;16.30;78.80;;;;;;5053326;28;20048;-68
2022/02/25 15:26:57;;;;;;;2.65;1.27;;;16.30;79.10;;;;;;5053341;28;20048;-69
2022/02/25 15:30:03;;;;;;;10.88;3.10;;;16.30;78.30;;;;;;5053277;28;20041;-69
2022/02/25 15:33:07;;;;;;;7.65;3.88;;;16.20;77.90;;;;;;5053076;28;20040;-68
2022/02/25 15:36:13;;;;;;;15.88;2.22;;;16.20;77.80;;;;;;5052923;28;20036;-69
2022/02/25 15:39:17;;;;;;;8.05;2.10;;;16.20;78.20;;;;;;5053063;28;20393;-67
2022/02/25 15:42:21;;;;;;;14.18;5.68;;;16.10;79.00;;;;;;5052908;28;20037;-69
2022/02/25 15:45:25;;;;;;;11.50;1.77;;;16.10;79.60;;;;;;5053051;28;20044;-68
2022/02/25 15:48:30;;;;;;;8.05;1.52;;;16.00;80.10;;;;;;5052907;28;20083;-69
2022/02/25 15:51:35;;;;;;;3.70;1.52;;;15.90;79.80;;;;;;5052022;28;20036;-69
2022/02/25 15:54:39;;;;;;;8.32;1.65;;;15.90;80.40;;;;;;5052249;28;20045;-69
2022/02/25 15:57:43;;;;;;;9.20;1.85;;;15.80;80.60;;;;;;5052401;28;20059;-71
2022/02/25 16:00:48;;;;;;;8.52;1.88;;;15.80;82.20;;;;;;5052569;28;20044;-67
2022/02/25 16:03:52;;;;;;;9.10;1.80;;;15.80;80.60;;;;;;5052117;28;20053;-69
2022/02/25 16:06:56;;;;;;;6.38;2.05;;;15.60;80.80;;;;;;5052435;28;20037;-67
2022/02/25 16:10:00;;;;;;;6.05;1.50;;;15.60;81.40;;;;;;5051751;28;20048;-68